Time;durP1;ratioP1;P1;durP2;ratioP2;P2;SDS_P1;SDS_P2;PMS_P1;PMS_P2;Temp;Humidity;BMP_temperature;BMP_pressure;BME280_temperature;BME280_humidity;BME280_pressure;Samples;Min_cycle;Max_cycle;Signal;HPM_P1;HPM_P2
2023/09/12 00:01:54;;;;;;;34.30;23.10;;;;;;;;;;6250004;28;20494;-60
2023/09/12 00:04:55;;;;;;;35.90;24.70;;;;;;;;;;6240995;28;20132;-60
2023/09/12 00:07:55;;;;;;;35.13;23.03;;;;;;;;;;6242848;28;20401;-61
2023/09/12 00:11:11;;;;;;;32.47;22.13;;;;;;;;;;6241458;28;20132;-60
2023/09/12 00:14:16;;;;;;;33.00;23.08;;;;;;;;;;6243152;28;20053;-61
2023/09/12 00:17:17;;;;;;;36.60;24.23;;;;;;;;;;6242171;28;20034;-60
2023/09/12 00:20:17;;;;;;;31.57;21.67;;;;;;;;;;6241458;28;20451;-60
2023/09/12 00:23:20;;;;;;;34.13;22.40;;;;;;;;;;6241744;28;20452;-60
2023/09/12 00:26:20;;;;;;;32.45;23.20;;;;;;;;;;6241026;28;20041;-60
2023/09/12 00:29:21;;;;;;;32.67;22.50;;;;;;;;;;6241557;28;20123;-62
2023/09/12 00:32:21;;;;;;;33.33;22.67;;;;;;;;;;6241314;28;20050;-60
2023/09/12 00:35:22;;;;;;;31.23;21.83;;;;;;;;;;6240714;28;20084;-60
2023/09/12 00:38:22;;;;;;;34.00;23.33;;;;;;;;;;6240309;28;20072;-60
2023/09/12 00:41:23;;;;;;;32.03;22.52;;;;;;;;;;6241009;28;20046;-60
2023/09/12 00:44:23;;;;;;;37.80;24.63;;;;;;;;;;6241459;28;20046;-59
2023/09/12 00:47:25;;;;;;;36.17;24.50;;;;;;;;;;6241802;28;20091;-60
2023/09/12 00:50:27;;;;;;;35.38;23.98;;;;;;;;;;6241364;28;20041;-59
2023/09/12 00:53:28;;;;;;;35.72;22.75;;;;;;;;;;6242161;28;20059;-61
2023/09/12 00:56:28;;;;;;;34.50;22.37;;;;;;;;;;6241732;28;20524;-60
2023/09/12 00:59:29;;;;;;;32.40;22.00;;;;;;;;;;6241030;28;20057;-60
2023/09/12 01:02:30;;;;;;;35.97;23.73;;;;;;;;;;6239069;28;20041;-60
2023/09/12 01:05:31;;;;;;;33.17;22.57;;;;;;;;;;6240027;28;20531;-60
2023/09/12 01:08:31;;;;;;;34.63;22.47;;;;;;;;;;6240938;28;20038;-60
2023/09/12 01:11:32;;;;;;;37.57;23.10;;;;;;;;;;6241113;28;20563;-60
2023/09/12 01:14:32;;;;;;;35.70;23.73;;;;;;;;;;6240631;28;20465;-60
2023/09/12 01:17:34;;;;;;;33.58;22.95;;;;;;;;;;6240454;28;20080;-60
2023/09/12 01:20:36;;;;;;;32.65;22.33;;;;;;;;;;6241189;28;20053;-59
2023/09/12 01:24:16;;;;;;;33.00;22.20;;;;;;;;;;6241341;28;20033;-60
2023/09/12 01:27:29;;;;;;;39.08;25.13;;;;;;;;;;6239183;28;20143;-61
2023/09/12 01:30:32;;;;;;;38.38;24.63;;;;;;;;;;6239208;28;20075;-59
2023/09/12 01:33:32;;;;;;;34.50;22.38;;;;;;;;;;6239990;28;20045;-60
2023/09/12 01:36:33;;;;;;;34.50;23.93;;;;;;;;;;6240617;28;20065;-59
2023/09/12 01:39:34;;;;;;;37.17;25.63;;;;;;;;;;6240703;28;20041;-61
2023/09/12 01:42:38;;;;;;;38.90;25.63;;;;;;;;;;6240636;28;20037;-59
2023/09/12 01:45:38;;;;;;;34.88;24.20;;;;;;;;;;6240940;28;20414;-60
2023/09/12 01:48:40;;;;;;;41.73;25.10;;;;;;;;;;6240195;28;20531;-60
2023/09/12 01:51:40;;;;;;;33.13;23.37;;;;;;;;;;6239624;28;20057;-60
2023/09/12 01:54:42;;;;;;;37.65;24.33;;;;;;;;;;6239749;28;20400;-60
2023/09/12 01:57:42;;;;;;;38.42;24.75;;;;;;;;;;6222857;28;20044;-59
2023/09/12 02:00:43;;;;;;;36.07;24.47;;;;;;;;;;6240502;28;20045;-60
2023/09/12 02:03:44;;;;;;;33.88;23.27;;;;;;;;;;6239666;28;20416;-60
2023/09/12 02:06:44;;;;;;;32.70;22.23;;;;;;;;;;6237719;28;20100;-59
2023/09/12 02:09:45;;;;;;;36.37;22.93;;;;;;;;;;6240463;28;20042;-59
2023/09/12 02:12:45;;;;;;;36.22;23.67;;;;;;;;;;6239951;28;20126;-60
2023/09/12 02:15:46;;;;;;;33.17;22.98;;;;;;;;;;6239326;28;20065;-59
2023/09/12 02:18:46;;;;;;;35.60;23.27;;;;;;;;;;6240345;28;20492;-59
2023/09/12 02:21:47;;;;;;;37.03;23.37;;;;;;;;;;6239457;28;20037;-59
2023/09/12 02:24:48;;;;;;;37.07;23.97;;;;;;;;;;6239476;28;20439;-60
2023/09/12 02:27:48;;;;;;;32.83;22.27;;;;;;;;;;6240341;28;20042;-59
2023/09/12 02:30:49;;;;;;;34.17;22.17;;;;;;;;;;6239854;28;20049;-60
2023/09/12 02:33:49;;;;;;;38.87;24.47;;;;;;;;;;6238583;28;20049;-59
2023/09/12 02:36:50;;;;;;;36.47;22.43;;;;;;;;;;6239696;28;20045;-60
2023/09/12 02:39:50;;;;;;;34.80;22.97;;;;;;;;;;6239674;28;20034;-60
2023/09/12 02:42:52;;;;;;;35.47;22.88;;;;;;;;;;6240739;28;20112;-59
2023/09/12 02:45:52;;;;;;;30.63;21.10;;;;;;;;;;6243580;28;20048;-60
2023/09/12 02:48:53;;;;;;;34.33;23.17;;;;;;;;;;6242763;28;20053;-59
2023/09/12 02:51:53;;;;;;;36.90;24.30;;;;;;;;;;6242332;28;20049;-59
2023/09/12 02:54:54;;;;;;;33.63;23.90;;;;;;;;;;6244088;28;20029;-61
2023/09/12 02:57:54;;;;;;;34.08;23.05;;;;;;;;;;6244472;28;20048;-59
2023/09/12 03:00:55;;;;;;;33.27;22.83;;;;;;;;;;6242794;28;20065;-59
2023/09/12 03:03:58;;;;;;;35.17;23.70;;;;;;;;;;6244589;28;20052;-60
2023/09/12 03:06:58;;;;;;;38.88;24.45;;;;;;;;;;6242910;28;20052;-59
2023/09/12 03:09:59;;;;;;;32.55;22.70;;;;;;;;;;6242276;28;20548;-58
2023/09/12 03:12:59;;;;;;;33.65;23.38;;;;;;;;;;6241708;28;20041;-59
2023/09/12 03:16:00;;;;;;;33.43;24.33;;;;;;;;;;6242113;28;20037;-59
2023/09/12 03:19:02;;;;;;;33.17;23.13;;;;;;;;;;6244593;28;20102;-60
2023/09/12 03:22:03;;;;;;;35.55;23.25;;;;;;;;;;6243298;28;20788;-60
2023/09/12 03:25:05;;;;;;;35.28;23.42;;;;;;;;;;6243274;28;20052;-60
2023/09/12 03:28:06;;;;;;;;;;;;;;;;;;6244354;28;20084;-60
2023/09/12 03:31:13;;;;;;;32.78;22.25;;;;;;;;;;6250540;28;20527;-58
2023/09/12 03:34:13;;;;;;;33.45;22.73;;;;;;;;;;6258769;28;20041;-61
2023/09/12 03:37:14;;;;;;;39.45;25.30;;;;;;;;;;6249207;28;20626;-61
2023/09/12 03:40:15;;;;;;;36.72;24.25;;;;;;;;;;6242787;28;20092;-60
2023/09/12 03:43:15;;;;;;;37.22;25.55;;;;;;;;;;6243438;28;20418;-59
2023/09/12 03:46:16;;;;;;;38.43;24.60;;;;;;;;;;6239758;28;20057;-61
2023/09/12 03:49:17;;;;;;;39.07;25.37;;;;;;;;;;6267981;28;20131;-61
2023/09/12 03:52:17;;;;;;;40.92;24.90;;;;;;;;;;6243181;28;20089;-60
2023/09/12 03:55:18;;;;;;;36.22;24.30;;;;;;;;;;6241023;28;20059;-60
2023/09/12 03:58:19;;;;;;;36.67;23.60;;;;;;;;;;6242733;28;20412;-63
2023/09/12 04:01:19;;;;;;;32.97;23.52;;;;;;;;;;6247318;28;20069;-60
2023/09/12 04:04:20;;;;;;;35.08;23.85;;;;;;;;;;6242622;28;20080;-61
2023/09/12 04:07:20;;;;;;;34.00;22.70;;;;;;;;;;6239515;28;20045;-60
2023/09/12 04:10:21;;;;;;;45.53;25.57;;;;;;;;;;6240296;28;20787;-59
2023/09/12 04:13:22;;;;;;;37.60;25.10;;;;;;;;;;6236691;28;20108;-60
2023/09/12 04:16:22;;;;;;;36.83;25.57;;;;;;;;;;6238463;28;20041;-60
2023/09/12 04:19:23;;;;;;;35.27;23.80;;;;;;;;;;6240020;28;20045;-60
2023/09/12 04:22:23;;;;;;;43.10;27.30;;;;;;;;;;6239348;28;20041;-61
2023/09/12 04:25:25;;;;;;;42.70;26.63;;;;;;;;;;6240121;28;20060;-60
2023/09/12 04:28:26;;;;;;;46.55;26.67;;;;;;;;;;6241728;28;20420;-60
2023/09/12 04:31:27;;;;;;;40.67;26.50;;;;;;;;;;6241475;28;20045;-60
2023/09/12 04:34:27;;;;;;;44.67;27.07;;;;;;;;;;6239239;28;20041;-61
2023/09/12 04:37:28;;;;;;;43.83;27.40;;;;;;;;;;6241077;28;20477;-60
2023/09/12 04:40:29;;;;;;;42.72;27.05;;;;;;;;;;6242406;28;20037;-60
2023/09/12 04:43:33;;;;;;;43.93;27.47;;;;;;;;;;6239940;28;20045;-60
2023/09/12 04:46:33;;;;;;;44.97;27.60;;;;;;;;;;6240702;28;20424;-60
2023/09/12 04:49:34;;;;;;;37.75;25.25;;;;;;;;;;6241492;28;20057;-60
2023/09/12 04:52:34;;;;;;;43.63;27.33;;;;;;;;;;6240581;28;20057;-60
2023/09/12 04:55:36;;;;;;;46.53;28.02;;;;;;;;;;6240855;28;20053;-61
2023/09/12 04:58:36;;;;;;;43.30;27.20;;;;;;;;;;6240969;28;20533;-60
2023/09/12 05:01:37;;;;;;;45.95;28.15;;;;;;;;;;6240081;28;20053;-60
2023/09/12 05:04:38;;;;;;;45.57;28.23;;;;;;;;;;6239281;28;20485;-60
2023/09/12 05:07:38;;;;;;;52.00;31.23;;;;;;;;;;6219715;28;20053;-62
2023/09/12 05:10:39;;;;;;;50.03;29.40;;;;;;;;;;6241134;28;20057;-60
2023/09/12 05:13:40;;;;;;;46.17;28.57;;;;;;;;;;6242190;28;20193;-61
2023/09/12 05:16:41;;;;;;;53.72;32.08;;;;;;;;;;6251934;28;20048;-60
2023/09/12 05:19:42;;;;;;;49.83;30.57;;;;;;;;;;6251244;28;20041;-61
2023/09/12 05:22:43;;;;;;;56.40;30.95;;;;;;;;;;6255355;28;20134;-60
2023/09/12 05:25:43;;;;;;;55.93;31.83;;;;;;;;;;6224214;28;20048;-62
2023/09/12 05:28:44;;;;;;;61.93;34.30;;;;;;;;;;6252480;28;20037;-61
2023/09/12 05:31:45;;;;;;;62.87;35.70;;;;;;;;;;6249381;28;20080;-60
2023/09/12 05:34:45;;;;;;;61.88;35.42;;;;;;;;;;6253336;28;20094;-60
2023/09/12 05:37:46;;;;;;;69.43;37.55;;;;;;;;;;6239949;28;20550;-60
2023/09/12 05:40:49;;;;;;;66.88;38.10;;;;;;;;;;6251425;28;20072;-61
2023/09/12 05:43:50;;;;;;;61.00;37.08;;;;;;;;;;6247605;28;20527;-59
2023/09/12 05:46:50;;;;;;;57.97;35.40;;;;;;;;;;6243965;28;20045;-60
2023/09/12 05:49:51;;;;;;;57.50;35.93;;;;;;;;;;6251758;28;20143;-60
2023/09/12 05:52:51;;;;;;;54.93;34.93;;;;;;;;;;6246288;28;20504;-60
2023/09/12 05:55:52;;;;;;;57.13;35.00;;;;;;;;;;6258134;28;20136;-61
2023/09/12 05:58:53;;;;;;;48.67;33.10;;;;;;;;;;6253317;28;20038;-60
2023/09/12 06:01:53;;;;;;;54.90;33.47;;;;;;;;;;6246584;28;20049;-60
2023/09/12 06:04:54;;;;;;;55.47;34.07;;;;;;;;;;6243461;28;20424;-60
2023/09/12 06:07:55;;;;;;;50.07;33.50;;;;;;;;;;6241476;28;20438;-59
2023/09/12 06:10:56;;;;;;;54.20;33.23;;;;;;;;;;6238032;28;20041;-59
2023/09/12 06:13:57;;;;;;;58.85;34.10;;;;;;;;;;6235464;28;20050;-59
2023/09/12 06:16:57;;;;;;;52.73;32.43;;;;;;;;;;6239234;28;20045;-59
2023/09/12 06:19:58;;;;;;;52.13;34.03;;;;;;;;;;6244159;28;20065;-60
2023/09/12 06:22:59;;;;;;;54.20;33.67;;;;;;;;;;6242674;28;20119;-60
2023/09/12 06:25:59;;;;;;;54.70;34.13;;;;;;;;;;6244247;28;20041;-59
2023/09/12 06:29:00;;;;;;;54.53;34.57;;;;;;;;;;6244411;28;20051;-60
2023/09/12 06:32:02;;;;;;;53.83;32.43;;;;;;;;;;6244433;28;20081;-59
2023/09/12 06:35:02;;;;;;;51.78;33.40;;;;;;;;;;6244459;28;20049;-58
2023/09/12 06:38:03;;;;;;;51.40;34.37;;;;;;;;;;6243482;28;20128;-59
2023/09/12 06:41:04;;;;;;;52.77;34.73;;;;;;;;;;6242252;28;20049;-60
2023/09/12 06:44:05;;;;;;;50.90;32.63;;;;;;;;;;6245341;28;20037;-60
2023/09/12 06:47:05;;;;;;;50.27;31.40;;;;;;;;;;6245694;28;20053;-60
2023/09/12 06:50:06;;;;;;;50.23;31.83;;;;;;;;;;6243923;28;20053;-59
2023/09/12 06:53:08;;;;;;;51.00;32.50;;;;;;;;;;6242461;28;20156;-60
2023/09/12 06:56:08;;;;;;;51.78;31.65;;;;;;;;;;6243640;28;20052;-60
2023/09/12 06:59:09;;;;;;;49.37;30.83;;;;;;;;;;6243443;28;20394;-63
2023/09/12 07:02:11;;;;;;;54.23;30.40;;;;;;;;;;6242306;28;20064;-59
2023/09/12 07:05:11;;;;;;;;;;;;;;;;;;6245039;28;20152;-60
2023/09/12 07:08:12;;;;;;;50.17;28.95;;;;;;;;;;6243411;28;19921;-60
2023/09/12 07:11:13;;;;;;;49.73;28.13;;;;;;;;;;6242908;28;20408;-56
2023/09/12 07:14:14;;;;;;;44.23;27.83;;;;;;;;;;6243906;28;20041;-59
2023/09/12 07:17:15;;;;;;;45.13;27.35;;;;;;;;;;6243538;28;20049;-58
2023/09/12 07:20:17;;;;;;;42.93;25.60;;;;;;;;;;6243911;28;20055;-59
2023/09/12 07:23:18;;;;;;;38.42;25.60;;;;;;;;;;6243077;28;20047;-59
2023/09/12 07:26:18;;;;;;;37.30;25.17;;;;;;;;;;6243805;28;20110;-59
2023/09/12 07:29:19;;;;;;;35.77;24.83;;;;;;;;;;6244074;28;20567;-59
2023/09/12 07:32:21;;;;;;;36.20;25.77;;;;;;;;;;6242984;28;20389;-60
2023/09/12 07:35:23;;;;;;;36.45;25.90;;;;;;;;;;6241544;28;20041;-59
2023/09/12 07:38:24;;;;;;;36.15;25.45;;;;;;;;;;6242418;28;20114;-60
2023/09/12 07:41:25;;;;;;;38.73;26.10;;;;;;;;;;6242437;28;20037;-60
2023/09/12 07:44:29;;;;;;;34.63;24.13;;;;;;;;;;6240782;28;20088;-59
2023/09/12 07:47:30;;;;;;;34.55;23.77;;;;;;;;;;6243094;28;20540;-59
2023/09/12 07:50:30;;;;;;;35.63;24.23;;;;;;;;;;6243173;28;20171;-59
2023/09/12 07:53:31;;;;;;;33.87;23.90;;;;;;;;;;6242203;28;20052;-59
2023/09/12 07:56:31;;;;;;;33.43;23.97;;;;;;;;;;6241106;28;20037;-58
2023/09/12 07:59:33;;;;;;;30.47;22.47;;;;;;;;;;6243325;28;20456;-59
2023/09/12 08:02:34;;;;;;;;;;;;;;;;;;6242004;28;20050;-59
2023/09/12 08:05:34;;;;;;;30.95;22.38;;;;;;;;;;6241371;28;20300;-59
2023/09/12 08:08:35;;;;;;;31.17;22.80;;;;;;;;;;6240638;28;20042;-60
2023/09/12 08:11:36;;;;;;;34.27;24.03;;;;;;;;;;6240592;28;20037;-59
2023/09/12 08:14:37;;;;;;;30.92;21.67;;;;;;;;;;6241115;28;20936;-60
2023/09/12 08:17:38;;;;;;;35.40;22.73;;;;;;;;;;6242808;28;20057;-59
2023/09/12 08:20:39;;;;;;;31.85;23.65;;;;;;;;;;6242384;28;20053;-60
2023/09/12 08:23:39;;;;;;;33.10;22.37;;;;;;;;;;6241693;28;20044;-59
2023/09/12 08:26:40;;;;;;;33.00;22.77;;;;;;;;;;6241362;28;20052;-59
2023/09/12 08:29:43;;;;;;;31.10;21.27;;;;;;;;;;6243613;28;20354;-60
2023/09/12 08:32:44;;;;;;;31.45;20.60;;;;;;;;;;6241067;28;20430;-59
2023/09/12 08:35:44;;;;;;;29.07;19.77;;;;;;;;;;6241678;28;20415;-59
2023/09/12 08:38:45;;;;;;;29.23;20.67;;;;;;;;;;6242105;28;20088;-59
2023/09/12 08:41:48;;;;;;;33.67;20.13;;;;;;;;;;6239882;28;20850;-60
2023/09/12 08:44:49;;;;;;;31.13;20.52;;;;;;;;;;6239948;28;20063;-60
2023/09/12 08:47:52;;;;;;;29.07;20.13;;;;;;;;;;6239863;28;20038;-59
2023/09/12 08:50:54;;;;;;;33.97;20.85;;;;;;;;;;6240458;28;20144;-59
2023/09/12 08:53:55;;;;;;;42.10;22.45;;;;;;;;;;6239274;28;20053;-58
2023/09/12 08:56:56;;;;;;;29.87;21.17;;;;;;;;;;6240869;28;20132;-59
2023/09/12 08:59:57;;;;;;;25.20;19.48;;;;;;;;;;6239944;28;20096;-59
2023/09/12 09:02:59;;;;;;;24.63;17.67;;;;;;;;;;6238616;28;20444;-57
2023/09/12 09:06:01;;;;;;;24.27;18.10;;;;;;;;;;6241371;28;20049;-59
2023/09/12 09:09:04;;;;;;;28.35;19.08;;;;;;;;;;6241691;28;20439;-59
2023/09/12 09:12:08;;;;;;;26.58;18.40;;;;;;;;;;6240752;28;20080;-59
2023/09/12 09:15:22;;;;;;;26.02;17.58;;;;;;;;;;6239995;28;20579;-59
2023/09/12 09:18:22;;;;;;;24.67;17.45;;;;;;;;;;6241480;28;20064;-59
2023/09/12 09:21:34;;;;;;;22.85;16.98;;;;;;;;;;6239973;28;20140;-59
2023/09/12 09:24:34;;;;;;;22.67;16.67;;;;;;;;;;6240574;28;20052;-59
2023/09/12 09:27:35;;;;;;;21.77;15.60;;;;;;;;;;6239023;28;20562;-59
2023/09/12 09:30:40;;;;;;;24.17;16.63;;;;;;;;;;6240228;28;20299;-59
2023/09/12 09:33:45;;;;;;;23.50;16.77;;;;;;;;;;6239411;28;20111;-60
2023/09/12 09:36:56;;;;;;;24.60;16.75;;;;;;;;;;6238106;28;20080;-60
2023/09/12 09:39:58;;;;;;;23.02;15.45;;;;;;;;;;6240319;28;20488;-60
2023/09/12 09:43:00;;;;;;;23.80;15.35;;;;;;;;;;6241077;28;20041;-61
2023/09/12 09:46:01;;;;;;;23.23;16.02;;;;;;;;;;6240392;28;20089;-59
2023/09/12 09:49:01;;;;;;;24.42;16.13;;;;;;;;;;6239454;28;20040;-60
2023/09/12 09:52:05;;;;;;;24.27;17.15;;;;;;;;;;6241639;28;20462;-60
2023/09/12 09:55:06;;;;;;;24.33;18.88;;;;;;;;;;6244963;28;20063;-59
2023/09/12 09:58:08;;;;;;;22.85;17.88;;;;;;;;;;6243831;28;20086;-61
2023/09/12 10:01:10;;;;;;;24.55;17.92;;;;;;;;;;6243426;28;20042;-59
2023/09/12 10:04:11;;;;;;;25.35;17.60;;;;;;;;;;6245610;28;20053;-59
2023/09/12 10:07:13;;;;;;;27.15;18.17;;;;;;;;;;6244680;28;20044;-60
2023/09/12 10:10:14;;;;;;;25.63;16.55;;;;;;;;;;6246208;28;20041;-60
2023/09/12 10:13:17;;;;;;;22.55;16.33;;;;;;;;;;6244997;28;20102;-59
2023/09/12 10:16:19;;;;;;;25.63;16.65;;;;;;;;;;6244855;28;20053;-59
2023/09/12 10:19:27;;;;;;;26.88;16.67;;;;;;;;;;6244093;28;20088;-60
2023/09/12 10:22:33;;;;;;;22.35;16.60;;;;;;;;;;6245371;28;20045;-59
2023/09/12 10:25:36;;;;;;;24.67;17.15;;;;;;;;;;6245031;28;20075;-59
2023/09/12 10:28:40;;;;;;;24.13;17.05;;;;;;;;;;6243542;28;20045;-59
2023/09/12 10:31:41;;;;;;;22.73;17.13;;;;;;;;;;6244665;28;20462;-60
2023/09/12 10:34:47;;;;;;;22.45;17.77;;;;;;;;;;6244335;28;20552;-60
2023/09/12 10:37:49;;;;;;;24.58;16.60;;;;;;;;;;6243453;28;20045;-59
2023/09/12 10:40:52;;;;;;;19.98;15.68;;;;;;;;;;6244015;28;20512;-61
2023/09/12 10:43:54;;;;;;;26.40;16.58;;;;;;;;;;6243191;28;20136;-59
2023/09/12 10:46:55;;;;;;;22.35;15.70;;;;;;;;;;6244996;28;20519;-59
2023/09/12 10:49:57;;;;;;;19.50;14.60;;;;;;;;;;6244460;28;20033;-60
2023/09/12 10:53:12;;;;;;;24.05;14.13;;;;;;;;;;6244821;28;20057;-59
2023/09/12 10:56:12;;;;;;;27.00;15.88;;;;;;;;;;6244780;28;20428;-59
2023/09/12 10:59:14;;;;;;;25.63;15.57;;;;;;;;;;6242511;28;20136;-60
2023/09/12 11:02:31;;;;;;;19.50;14.10;;;;;;;;;;6243351;28;20693;-59
2023/09/12 11:05:33;;;;;;;20.20;14.27;;;;;;;;;;6242228;28;20427;-59
2023/09/12 11:08:40;;;;;;;20.58;13.95;;;;;;;;;;6241001;28;20049;-60
2023/09/12 11:11:48;;;;;;;18.95;13.82;;;;;;;;;;6244442;28;20555;-60
2023/09/12 11:15:06;;;;;;;19.42;13.73;;;;;;;;;;6241979;28;20038;-59
2023/09/12 11:18:06;;;;;;;19.08;13.77;;;;;;;;;;6242411;28;20063;-60
2023/09/12 11:21:07;;;;;;;16.00;13.23;;;;;;;;;;6243540;28;20595;-59
2023/09/12 11:24:08;;;;;;;18.60;13.55;;;;;;;;;;6243732;28;20061;-60
2023/09/12 11:27:09;;;;;;;20.58;14.32;;;;;;;;;;6242784;28;20405;-60
2023/09/12 11:30:10;;;;;;;22.85;13.55;;;;;;;;;;6243101;28;20052;-60
2023/09/12 11:33:11;;;;;;;21.77;13.32;;;;;;;;;;6241986;28;20052;-60
2023/09/12 11:36:18;;;;;;;19.25;13.50;;;;;;;;;;6243488;28;20049;-59
2023/09/12 11:39:24;;;;;;;23.02;13.63;;;;;;;;;;6240579;28;20060;-59
2023/09/12 11:42:26;;;;;;;20.15;14.07;;;;;;;;;;6240416;28;20571;-60
2023/09/12 11:45:27;;;;;;;21.38;14.65;;;;;;;;;;6241390;28;20049;-59
2023/09/12 11:48:29;;;;;;;18.95;13.95;;;;;;;;;;6242436;28;20589;-59
2023/09/12 11:51:30;;;;;;;20.70;15.00;;;;;;;;;;6243167;28;20452;-58
2023/09/12 11:54:34;;;;;;;18.75;14.00;;;;;;;;;;6245740;28;20045;-60
2023/09/12 11:57:34;;;;;;;23.55;13.75;;;;;;;;;;6253248;28;20049;-59
2023/09/12 12:00:35;;;;;;;18.00;13.50;;;;;;;;;;6249864;28;20450;-60
2023/09/12 12:03:36;;;;;;;22.07;14.40;;;;;;;;;;6233385;28;20052;-59
2023/09/12 12:06:36;;;;;;;19.75;15.35;;;;;;;;;;6248869;28;20052;-60
2023/09/12 12:09:38;;;;;;;19.90;15.23;;;;;;;;;;6253534;28;20041;-61
2023/09/12 12:12:38;;;;;;;20.20;14.55;;;;;;;;;;6246564;28;20045;-61
2023/09/12 12:15:39;;;;;;;18.70;14.77;;;;;;;;;;6248854;28;20041;-60
2023/09/12 12:18:39;;;;;;;26.95;15.45;;;;;;;;;;6234309;28;20748;-60
2023/09/12 12:21:43;;;;;;;23.13;15.70;;;;;;;;;;6251374;28;20053;-60
2023/09/12 12:24:46;;;;;;;20.45;15.35;;;;;;;;;;6249542;28;20044;-60
2023/09/12 12:27:46;;;;;;;21.08;15.02;;;;;;;;;;6252654;28;20049;-60
2023/09/12 12:30:52;;;;;;;19.20;14.80;;;;;;;;;;6250831;28;20048;-61
2023/09/12 12:33:53;;;;;;;23.50;15.40;;;;;;;;;;6251247;28;20049;-60
2023/09/12 12:36:55;;;;;;;19.30;14.75;;;;;;;;;;6250296;28;20037;-61
2023/09/12 12:39:55;;;;;;;20.52;14.95;;;;;;;;;;6249483;28;21172;-60
2023/09/12 12:42:56;;;;;;;21.02;15.32;;;;;;;;;;6249783;28;20087;-60
2023/09/12 12:45:58;;;;;;;21.53;15.40;;;;;;;;;;6252550;28;20053;-60
2023/09/12 12:48:59;;;;;;;23.52;15.20;;;;;;;;;;6249162;28;20041;-60
2023/09/12 12:52:02;;;;;;;23.37;15.30;;;;;;;;;;6247936;28;20856;-60
2023/09/12 12:55:11;;;;;;;20.52;15.18;;;;;;;;;;6251058;28;21281;-61
2023/09/12 12:58:11;;;;;;;19.15;14.82;;;;;;;;;;6250045;28;20499;-60
2023/09/12 13:01:12;;;;;;;21.55;15.70;;;;;;;;;;6248761;28;20107;-60
2023/09/12 13:04:12;;;;;;;19.73;14.97;;;;;;;;;;6248460;28;20041;-61
2023/09/12 13:07:13;;;;;;;19.75;14.75;;;;;;;;;;6246714;28;20068;-60
2023/09/12 13:10:13;;;;;;;18.73;14.50;;;;;;;;;;6253099;28;20048;-60
2023/09/12 13:13:14;;;;;;;22.00;14.45;;;;;;;;;;6247217;28;20075;-60
2023/09/12 13:16:15;;;;;;;20.07;14.97;;;;;;;;;;6249347;28;20060;-60
2023/09/12 13:19:16;;;;;;;;;;;;;;;;;;6252651;28;20052;-61
2023/09/12 13:22:16;;;;;;;18.73;14.50;;;;;;;;;;6249429;28;20335;-61
2023/09/12 13:25:17;;;;;;;23.20;15.63;;;;;;;;;;6251818;28;20063;-60
2023/09/12 13:28:18;;;;;;;20.30;14.80;;;;;;;;;;6247773;28;20049;-59
2023/09/12 13:31:18;;;;;;;24.25;15.70;;;;;;;;;;6250982;28;20053;-61
2023/09/12 13:34:19;;;;;;;19.97;15.67;;;;;;;;;;6244778;28;20057;-61
2023/09/12 13:37:21;;;;;;;22.35;17.25;;;;;;;;;;6258543;28;20087;-61
2023/09/12 13:40:21;;;;;;;25.80;15.95;;;;;;;;;;6248426;28;20052;-61
2023/09/12 13:43:22;;;;;;;24.02;16.02;;;;;;;;;;6248025;28;20057;-60
2023/09/12 13:46:23;;;;;;;22.13;16.52;;;;;;;;;;6247708;28;20080;-60
2023/09/12 13:49:24;;;;;;;21.05;15.05;;;;;;;;;;6248364;28;20467;-60
2023/09/12 13:52:27;;;;;;;22.67;15.50;;;;;;;;;;6248349;28;20387;-60
2023/09/12 13:55:28;;;;;;;23.27;15.50;;;;;;;;;;6241617;28;20435;-60
2023/09/12 13:58:28;;;;;;;23.93;15.43;;;;;;;;;;6251349;28;20041;-60
2023/09/12 14:01:29;;;;;;;22.05;16.20;;;;;;;;;;6249309;28;20458;-60
2023/09/12 14:04:30;;;;;;;23.65;16.65;;;;;;;;;;6248164;28;20617;-61
2023/09/12 14:07:30;;;;;;;23.88;16.10;;;;;;;;;;6251253;28;20053;-60
2023/09/12 14:10:31;;;;;;;21.63;16.23;;;;;;;;;;6250610;28;20040;-61
2023/09/12 14:13:31;;;;;;;23.77;16.30;;;;;;;;;;6248621;28;20084;-60
2023/09/12 14:16:32;;;;;;;23.13;16.07;;;;;;;;;;6249287;28;20041;-59
2023/09/12 14:19:34;;;;;;;21.65;15.10;;;;;;;;;;6250666;28;20266;-60
2023/09/12 14:22:34;;;;;;;19.13;14.90;;;;;;;;;;6248164;28;20045;-60
2023/09/12 14:25:35;;;;;;;20.63;15.35;;;;;;;;;;6230327;28;20126;-61
2023/09/12 14:28:35;;;;;;;20.37;15.20;;;;;;;;;;6250422;28;20053;-60
2023/09/12 14:31:37;;;;;;;20.88;14.70;;;;;;;;;;6248347;28;20609;-60
2023/09/12 14:34:38;;;;;;;28.48;15.30;;;;;;;;;;6246334;28;20354;-60
2023/09/12 14:37:39;;;;;;;22.60;15.13;;;;;;;;;;6249900;28;20492;-59
2023/09/12 14:40:39;;;;;;;21.10;15.07;;;;;;;;;;6254224;28;20048;-61
2023/09/12 14:43:40;;;;;;;20.90;15.45;;;;;;;;;;6253696;28;20057;-60
2023/09/12 14:46:40;;;;;;;22.63;15.77;;;;;;;;;;6256660;28;20408;-60
2023/09/12 14:49:41;;;;;;;20.40;15.98;;;;;;;;;;6256919;28;20087;-60
2023/09/12 14:52:43;;;;;;;20.27;15.57;;;;;;;;;;6249394;28;20099;-60
2023/09/12 14:55:43;;;;;;;23.60;14.90;;;;;;;;;;6251204;28;20075;-62
2023/09/12 14:58:44;;;;;;;22.53;15.97;;;;;;;;;;6257635;28;20037;-61
2023/09/12 15:01:45;;;;;;;20.33;15.93;;;;;;;;;;6252058;28;20083;-62
2023/09/12 15:04:45;;;;;;;20.13;16.45;;;;;;;;;;6255753;28;20052;-60
2023/09/12 15:07:46;;;;;;;22.80;16.30;;;;;;;;;;6253612;28;20071;-60
2023/09/12 15:10:46;;;;;;;19.17;15.57;;;;;;;;;;6248998;28;20057;-61
2023/09/12 15:13:47;;;;;;;23.42;16.08;;;;;;;;;;6252606;28;20049;-61
2023/09/12 15:16:48;;;;;;;21.20;15.77;;;;;;;;;;6254968;28;20052;-60
2023/09/12 15:19:49;;;;;;;23.00;15.50;;;;;;;;;;6255238;28;21090;-62
2023/09/12 15:22:49;;;;;;;19.90;15.43;;;;;;;;;;6251620;28;20045;-60
2023/09/12 15:25:51;;;;;;;23.10;16.08;;;;;;;;;;6251454;28;20182;-62
2023/09/12 15:28:51;;;;;;;31.35;16.30;;;;;;;;;;6251098;28;20121;-60
2023/09/12 15:31:53;;;;;;;29.92;16.92;;;;;;;;;;6253053;28;20580;-60
2023/09/12 15:34:55;;;;;;;27.75;17.15;;;;;;;;;;6252993;28;20033;-60
2023/09/12 15:37:56;;;;;;;23.10;16.25;;;;;;;;;;6254207;28;20167;-60
2023/09/12 15:40:56;;;;;;;20.93;16.10;;;;;;;;;;6252258;28;20558;-60
2023/09/12 15:43:57;;;;;;;23.63;16.60;;;;;;;;;;6247153;28;20057;-60
2023/09/12 15:46:58;;;;;;;24.93;17.30;;;;;;;;;;6258848;28;20040;-61
2023/09/12 15:49:58;;;;;;;23.52;16.73;;;;;;;;;;6266746;28;20037;-61
2023/09/12 15:52:59;;;;;;;21.07;16.50;;;;;;;;;;6251068;28;20057;-61
2023/09/12 15:56:01;;;;;;;22.48;16.90;;;;;;;;;;6242681;28;20076;-60
2023/09/12 15:59:02;;;;;;;26.93;17.43;;;;;;;;;;6241737;28;20154;-61
2023/09/12 16:02:03;;;;;;;;;;;;;;;;;;6241430;28;20479;-61
2023/09/12 16:05:04;;;;;;;26.87;16.67;;;;;;;;;;6239723;28;19932;-60
2023/09/12 16:08:04;;;;;;;;;;;;;;;;;;6240854;28;20144;-61
2023/09/12 16:11:05;;;;;;;22.27;17.40;;;;;;;;;;6240216;28;19924;-61
2023/09/12 16:14:06;;;;;;;22.17;16.38;;;;;;;;;;6239729;28;20459;-61
2023/09/12 16:17:06;;;;;;;22.63;17.00;;;;;;;;;;6238784;28;20112;-60
2023/09/12 16:20:09;;;;;;;21.90;16.73;;;;;;;;;;6240067;28;20132;-61
2023/09/12 16:23:09;;;;;;;24.95;18.17;;;;;;;;;;6240886;28;20491;-60
2023/09/12 16:26:10;;;;;;;22.10;17.42;;;;;;;;;;6240821;28;20055;-60
2023/09/12 16:29:11;;;;;;;27.50;17.60;;;;;;;;;;6242356;28;20040;-61
2023/09/12 16:32:11;;;;;;;21.92;16.98;;;;;;;;;;6239821;28;20175;-60
2023/09/12 16:35:12;;;;;;;22.40;16.93;;;;;;;;;;6239981;28;20459;-60
2023/09/12 16:38:13;;;;;;;24.20;17.63;;;;;;;;;;6242807;28;20500;-60
2023/09/12 16:41:13;;;;;;;26.88;17.42;;;;;;;;;;6241588;28;20061;-61
2023/09/12 16:44:14;;;;;;;25.25;17.92;;;;;;;;;;6241390;28;20592;-60
2023/09/12 16:47:14;;;;;;;25.87;17.67;;;;;;;;;;6240325;28;20049;-60
2023/09/12 16:50:15;;;;;;;23.47;17.43;;;;;;;;;;6241714;28;20695;-60
2023/09/12 16:53:17;;;;;;;23.40;17.23;;;;;;;;;;6240453;28;20294;-60
2023/09/12 16:56:18;;;;;;;24.48;17.58;;;;;;;;;;6241605;28;20102;-60
2023/09/12 16:59:18;;;;;;;24.60;18.57;;;;;;;;;;6241558;28;20049;-60
2023/09/12 17:02:19;;;;;;;25.50;18.27;;;;;;;;;;6240196;28;20081;-60
2023/09/12 17:05:22;;;;;;;27.67;19.50;;;;;;;;;;6239704;28;20504;-60
2023/09/12 17:08:23;;;;;;;26.13;18.30;;;;;;;;;;6240708;28;20057;-60
2023/09/12 17:11:24;;;;;;;23.83;17.40;;;;;;;;;;6241190;28;20573;-60
2023/09/12 17:14:24;;;;;;;29.10;19.50;;;;;;;;;;6240067;28;20404;-59
2023/09/12 17:17:25;;;;;;;31.60;20.03;;;;;;;;;;6240731;28;20052;-61
2023/09/12 17:20:26;;;;;;;34.60;20.43;;;;;;;;;;6241199;28;20064;-62
2023/09/12 17:23:26;;;;;;;27.73;19.87;;;;;;;;;;6239488;28;20051;-61
2023/09/12 17:26:27;;;;;;;31.50;20.05;;;;;;;;;;6237961;28;20148;-65
2023/09/12 17:29:27;;;;;;;27.97;19.80;;;;;;;;;;6244121;28;20115;-63
2023/09/12 17:32:29;;;;;;;31.63;20.17;;;;;;;;;;6258822;28;20965;-62
2023/09/12 17:35:30;;;;;;;33.90;20.98;;;;;;;;;;6243638;28;20670;-61
2023/09/12 17:38:31;;;;;;;35.17;19.67;;;;;;;;;;6250037;28;20179;-60